Date,TemperatureHighF,TemperatureAvgF,TemperatureLowF,DewpointHighF,DewpointAvgF,DewpointLowF,HumidityHigh,HumidityAvg,HumidityLow,PressureMaxIn,PressureMinIn,WindSpeedMaxMPH,WindSpeedAvgMPH,GustSpeedMaxMPH,PrecipitationSumIn
2013-4-1,88.5,76.7,67.3,71.5,66.7,60.6,98,74,40,29.91,29.78,16,6,0,0.00
2013-4-2,85.1,73.0,65.1,68.2,65.8,62.8,99,80,48,29.93,29.84,10,4,0,0.00
2013-4-3,83.7,75.9,68.9,70.2,68.4,66.8,95,79,60,29.92,29.84,14,5,0,0.00
2013-4-4,85.3,75.6,68.2,73.5,70.5,67.9,99,85,66,29.90,29.76,26,6,0,0.68
2013-4-5,72.5,67.9,64.4,70.4,67.0,64.1,99,97,87,29.85,29.67,11,5,0,0.39
2013-4-6,76.5,68.5,58.3,66.5,61.7,58.0,99,80,58,29.94,29.77,14,7,0,0.01
2013-4-7,77.2,73.0,68.9,64.6,62.6,60.5,78,70,60,29.99,29.88,12,7,0,0.00
2013-4-8,83.1,73.4,60.6,65.0,61.8,58.0,99,69,47,29.99,29.89,11,4,0,0.00
2013-4-9,81.3,74.7,71.2,69.9,67.0,63.8,94,78,58,30.00,29.89,14,6,0,0.09
2013-4-10,83.5,76.6,71.2,72.6,70.4,66.8,89,81,68,29.96,29.85,14,7,0,0.00
2013-4-11,84.6,77.7,74.8,74.3,72.2,71.1,92,84,69,29.87,29.74,16,8,0,0.00
2013-4-12,88.3,79.9,76.6,77.0,75.0,73.8,93,85,69,29.80,29.71,16,7,0,0.29
2013-4-13,87.1,76.1,71.2,75.9,72.7,68.6,99,90,69,29.82,29.73,12,3,0,0.15
2013-4-14,85.6,78.9,70.9,76.5,74.0,70.6,99,86,68,29.82,29.75,13,5,0,0.01
2013-4-15,89.8,75.8,69.6,76.3,72.9,68.7,99,92,63,29.91,29.77,17,3,0,0.91
2013-4-16,85.6,77.7,70.0,78.1,72.9,69.7,99,86,69,29.98,29.87,15,6,0,0.01
2013-4-17,83.8,77.8,72.1,71.3,68.8,66.4,91,75,58,29.96,29.86,14,6,0,0.00
2013-4-18,85.6,79.4,72.9,73.9,71.4,67.7,90,77,63,29.91,29.82,13,6,0,0.00
2013-4-19,87.8,81.2,76.5,74.2,72.7,69.7,88,76,59,29.90,29.81,17,7,0,0.00
2013-4-20,90.3,78.2,71.4,76.8,73.2,70.5,99,86,54,29.93,29.81,12,4,0,0.27
2013-4-21,85.1,77.6,71.2,74.4,72.1,70.6,99,84,67,29.94,29.83,14,5,0,0.00
2013-4-22,85.6,75.5,71.2,72.3,69.9,67.2,98,84,59,29.89,29.77,12,4,0,0.00
2013-4-23,83.5,75.4,67.3,69.0,65.9,60.3,99,74,55,29.94,29.79,18,8,0,0.00
2013-4-24,83.8,76.9,68.5,66.0,63.5,60.1,87,64,51,29.99,29.88,11,5,0,0.00
2013-4-25,82.2,75.9,68.9,64.2,62.0,59.3,81,63,46,30.05,29.92,14,5,0,0.00
2013-4-26,82.6,75.4,64.4,66.9,64.2,61.2,97,69,54,30.07,29.96,15,6,0,0.00
2013-4-27,81.1,76.7,71.1,67.2,63.9,61.5,75,65,53,30.06,29.94,15,7,0,0.00
2013-4-28,82.2,77.0,72.3,65.7,63.3,61.2,73,63,50,29.97,29.85,12,7,0,0.00
2013-4-29,84.0,77.4,72.1,71.4,67.8,62.8,85,73,58,29.89,29.78,14,6,0,0.00
2013-4-30,86.0,76.5,70.5,73.3,70.4,67.5,99,82,61,29.85,29.77,13,3,0,0.11